Time;durP1;ratioP1;P1;durP2;ratioP2;P2;SDS_P1;SDS_P2;PMS_P1;PMS_P2;Temp;Humidity;BMP_temperature;BMP_pressure;BME280_temperature;BME280_humidity;BME280_pressure;Samples;Min_cycle;Max_cycle;Signal;HPM_P1;HPM_P2
2021/10/26 00:02:00;;;;;;;;;;;11.00;99.90;;;9.54;100.00;101480.84;2569195;30;137425;-40
2021/10/26 00:04:28;;;;;;;8.07;4.70;;;11.00;99.90;;;9.57;100.00;101482.38;2565752;30;138270;-40
2021/10/26 00:06:55;;;;;;;8.90;4.82;;;11.00;99.90;;;9.57;100.00;101476.91;2568458;30;137090;-40
2021/10/26 00:09:23;;;;;;;10.20;5.13;;;11.00;99.90;;;9.58;100.00;101478.59;2568859;30;138317;-40
2021/10/26 00:11:51;;;;;;;6.78;4.80;;;11.10;99.90;;;9.56;100.00;101473.38;2568175;30;136967;-40
2021/10/26 00:14:19;;;;;;;7.30;4.55;;;11.00;99.90;;;9.58;100.00;101479.47;2568402;30;137512;-40
2021/10/26 00:16:46;;;;;;;9.95;5.03;;;11.10;99.90;;;9.59;100.00;101481.16;2567348;30;137625;-40
2021/10/26 00:19:14;;;;;;;9.35;4.93;;;11.00;99.90;;;9.57;100.00;101469.59;2567826;30;137419;-40
2021/10/26 00:21:43;;;;;;;7.93;4.97;;;11.00;99.90;;;9.59;100.00;101469.41;2567001;30;138043;-40
2021/10/26 00:24:11;;;;;;;8.70;5.38;;;11.00;99.90;;;9.58;100.00;101474.00;2568447;30;137891;-40
2021/10/26 00:26:38;;;;;;;;;;;11.00;99.90;;;9.56;100.00;101473.38;2567486;30;136813;-40
2021/10/26 00:29:06;;;;;;;10.45;5.00;;;11.00;99.90;;;9.57;100.00;101476.91;2568691;30;138479;-40
2021/10/26 00:31:37;;;;;;;8.25;4.43;;;11.00;99.90;;;9.56;100.00;101473.38;2568727;30;139401;-40
2021/10/26 00:34:05;;;;;;;7.13;4.35;;;11.00;99.90;;;9.54;100.00;101478.13;2567474;30;139183;-40
2021/10/26 00:36:33;;;;;;;7.88;4.88;;;11.00;99.90;;;9.50;100.00;101474.97;2567453;30;137510;-40
2021/10/26 00:39:04;;;;;;;8.35;4.90;;;11.00;99.90;;;9.49;100.00;101473.28;2567053;30;142050;-40
2021/10/26 00:41:36;;;;;;;8.35;4.90;;;11.00;99.90;;;9.46;100.00;101478.25;2568562;30;137579;-40
2021/10/26 00:44:05;;;;;;;8.55;5.10;;;11.00;99.90;;;9.51;100.00;101478.50;2566877;30;140000;-40
2021/10/26 00:46:36;;;;;;;7.78;4.68;;;11.00;99.90;;;9.50;100.00;101476.81;2567472;30;138828;-40
2021/10/26 00:49:11;;;;;;;11.15;4.72;;;10.90;99.90;;;9.54;100.00;101475.41;2566508;30;139667;-40
2021/10/26 00:51:43;;;;;;;9.15;4.82;;;11.00;99.90;;;9.49;100.00;101475.13;2566705;30;138913;-40
2021/10/26 00:54:11;;;;;;;8.68;4.57;;;11.00;99.90;;;9.43;100.00;101460.41;2566954;30;140610;-40
2021/10/26 00:56:49;;;;;;;8.95;5.25;;;11.00;99.90;;;9.49;100.00;101472.41;2567110;30;138706;-40
2021/10/26 00:59:18;;;;;;;9.02;4.90;;;10.90;99.90;;;9.53;100.00;101473.72;2568522;30;138398;-40
2021/10/26 01:01:48;;;;;;;9.35;5.10;;;11.00;99.90;;;9.58;100.00;101482.19;2566307;30;137460;-40
2021/10/26 01:04:18;;;;;;;7.82;4.50;;;11.00;99.90;;;9.58;100.00;101478.59;2567305;30;139362;-40
2021/10/26 01:06:47;;;;;;;9.43;4.93;;;11.00;99.90;;;9.60;100.00;101482.84;2567150;30;139104;-40
2021/10/26 01:09:18;;;;;;;10.45;5.38;;;11.00;99.90;;;9.60;100.00;101481.97;2568121;30;138299;-40
2021/10/26 01:11:46;;;;;;;;;;;11.00;99.90;;;9.61;100.00;101489.13;2567077;30;138595;-40
2021/10/26 01:14:15;;;;;;;10.02;4.80;;;11.00;99.90;;;9.57;100.00;101482.38;2566802;30;140297;-40
2021/10/26 01:16:44;;;;;;;9.50;4.80;;;11.00;99.90;;;9.57;100.00;101483.22;2567241;30;138801;-40
2021/10/26 01:19:15;;;;;;;7.72;4.75;;;11.00;99.90;;;9.57;100.00;101477.78;2567703;30;139227;-40
2021/10/26 01:21:43;;;;;;;8.95;4.70;;;11.00;99.90;;;9.54;100.00;101483.56;2567970;30;136841;-40
2021/10/26 01:24:10;;;;;;;;;;;11.00;99.90;;;9.54;100.00;101480.84;2565457;30;139707;-40
2021/10/26 01:26:38;;;;;;;7.97;4.57;;;11.00;99.90;;;9.58;100.00;101490.34;2567562;30;139601;-40
2021/10/26 01:29:06;;;;;;;8.27;4.70;;;11.00;99.90;;;9.57;100.00;101487.81;2565844;30;139654;-40
2021/10/26 01:31:37;;;;;;;9.20;4.88;;;11.00;99.90;;;9.56;100.00;101486.13;2564374;30;138755;-40
2021/10/26 01:34:28;;;;;;;9.07;5.00;;;11.00;99.90;;;9.55;100.00;101487.16;2566685;30;137977;-40
2021/10/26 01:37:04;;;;;;;8.25;4.63;;;11.00;99.90;;;9.52;100.00;101487.53;2568800;30;138515;-40
2021/10/26 01:39:35;;;;;;;9.50;5.47;;;11.00;99.90;;;9.57;100.00;101490.53;2566566;30;139443;-40
2021/10/26 01:42:05;;;;;;;9.23;4.63;;;11.00;99.90;;;9.53;100.00;101481.88;2567856;30;138566;-40
2021/10/26 01:44:33;;;;;;;7.72;4.68;;;11.00;99.90;;;9.49;100.00;101496.91;2567206;30;139165;-40
2021/10/26 01:47:08;;;;;;;9.10;4.95;;;11.00;99.90;;;9.48;100.00;101496.09;2567620;30;137015;-40
2021/10/26 01:49:36;;;;;;;7.70;4.82;;;11.00;99.90;;;9.48;100.00;101495.22;2567167;30;139749;-40
2021/10/26 01:52:04;;;;;;;;;;;11.00;99.90;;;9.48;100.00;101495.22;2568136;30;138589;-40
2021/10/26 01:54:37;;;;;;;9.10;4.65;;;10.90;99.90;;;9.44;100.00;101489.34;2566485;30;139873;-40
2021/10/26 01:57:06;;;;;;;7.32;4.88;;;11.00;99.90;;;9.48;100.00;101495.22;2566590;30;137617;-40
2021/10/26 01:59:55;;;;;;;7.93;4.97;;;11.00;99.90;;;9.43;100.00;101484.94;2566765;30;139594;-40
2021/10/26 02:02:25;;;;;;;9.73;5.15;;;10.90;99.90;;;9.46;100.00;101497.31;2567747;30;139610;-40
2021/10/26 02:04:55;;;;;;;8.68;5.20;;;11.00;99.90;;;9.46;100.00;101498.16;2567628;30;139350;-40
2021/10/26 02:07:25;;;;;;;8.15;5.07;;;10.90;99.90;;;9.54;100.00;101490.91;2567407;30;138829;-40
2021/10/26 02:09:53;;;;;;;10.52;5.43;;;10.90;99.90;;;9.55;100.00;101489.88;2567685;30;138730;-40
2021/10/26 02:12:23;;;;;;;7.80;5.18;;;11.00;99.90;;;9.50;100.00;101488.56;2567460;30;139164;-40
2021/10/26 02:14:54;;;;;;;11.27;5.78;;;10.90;99.90;;;9.50;100.00;101494.03;2564004;30;138175;-40
2021/10/26 02:17:21;;;;;;;9.38;5.18;;;11.00;99.90;;;9.53;100.00;101489.22;2567436;30;138940;-40
2021/10/26 02:19:50;;;;;;;10.15;5.72;;;11.00;99.90;;;9.54;100.00;101486.31;2567004;30;140044;-40
2021/10/26 02:22:18;;;;;;;10.80;6.32;;;11.00;99.90;;;9.61;100.00;101483.66;2568305;30;139096;-40
2021/10/26 02:24:45;;;;;;;;;;;11.00;99.90;;;9.56;100.00;101486.97;2567505;30;139934;-40
2021/10/26 02:27:13;;;;;;;9.57;5.70;;;11.00;99.90;;;9.52;100.00;101480.19;2567488;30;138502;-40
2021/10/26 02:29:44;;;;;;;12.02;5.93;;;11.00;99.90;;;9.55;100.00;101490.75;2564608;30;140496;-40
2021/10/26 02:32:12;;;;;;;7.90;5.28;;;11.00;99.90;;;9.56;100.00;101495.16;2566590;30;139263;-40
2021/10/26 02:34:39;;;;;;;11.60;5.85;;;11.00;99.90;;;9.53;100.00;101487.34;2566157;30;138431;-40
2021/10/26 02:37:07;;;;;;;;;;;11.00;99.90;;;9.52;100.00;101491.09;2567415;30;138668;-40
2021/10/26 02:39:35;;;;;;;10.82;5.07;;;11.00;99.90;;;9.48;100.00;101496.09;2566708;30;139536;-38
2021/10/26 02:42:03;;;;;;;10.18;5.60;;;11.00;99.90;;;9.50;100.00;101491.31;2568696;30;140037;-39
2021/10/26 02:44:32;;;;;;;10.50;5.53;;;11.00;99.90;;;9.52;100.00;101491.09;2568549;30;141089;-38
2021/10/26 02:47:02;;;;;;;10.30;6.18;;;11.00;99.90;;;9.59;100.00;101492.03;2566162;30;140292;-39
2021/10/26 02:49:29;;;;;;;9.43;5.45;;;11.00;99.90;;;9.57;100.00;101494.13;2567663;30;137323;-39
2021/10/26 02:51:59;;;;;;;;;;;11.00;99.90;;;9.53;100.00;101492.78;2568498;30;137427;-38
2021/10/26 02:54:26;;;;;;;11.17;5.77;;;11.00;99.90;;;9.47;100.00;101488.97;2568671;30;137815;-38
2021/10/26 02:56:54;;;;;;;9.98;6.53;;;10.90;99.90;;;9.49;100.00;101492.34;2567703;30;137627;-39
2021/10/26 02:59:24;;;;;;;10.98;6.05;;;11.00;99.90;;;9.56;100.00;101497.03;2569354;30;139062;-38
2021/10/26 03:01:52;;;;;;;10.98;5.90;;;11.00;99.90;;;9.53;100.00;101491.97;2568485;30;138921;-39
2021/10/26 03:04:20;;;;;;;9.68;5.65;;;11.00;99.90;;;9.46;100.00;101498.16;2567891;30;139609;-38
2021/10/26 03:06:50;;;;;;;11.38;6.30;;;10.90;99.90;;;9.46;100.00;101486.41;2569934;30;139019;-39
2021/10/26 03:09:17;;;;;;;11.15;6.22;;;10.90;99.90;;;9.50;100.00;101487.72;2568165;30;140478;-38
2021/10/26 03:11:45;;;;;;;12.18;6.30;;;11.00;99.90;;;9.44;100.00;101492.06;2569217;30;140121;-39
2021/10/26 03:14:13;;;;;;;11.77;5.90;;;10.90;99.90;;;9.42;100.00;101490.53;2569327;30;139306;-39
2021/10/26 03:16:41;;;;;;;12.55;6.13;;;10.90;99.90;;;9.36;100.00;101483.97;2568268;30;138729;-39
2021/10/26 03:19:08;;;;;;;12.75;6.82;;;10.90;99.90;;;9.40;100.00;101487.16;2568054;30;138974;-38
2021/10/26 03:21:38;;;;;;;10.63;6.00;;;10.90;99.90;;;9.31;100.00;101487.28;2566231;30;137507;-38
2021/10/26 03:24:06;;;;;;;10.13;6.25;;;10.80;99.90;;;9.35;100.00;101495.91;2568772;30;139860;-38
2021/10/26 03:26:34;;;;;;;10.05;6.20;;;10.80;99.90;;;9.35;100.00;101496.75;2568699;30;138910;-39
2021/10/26 03:29:05;;;;;;;11.60;6.60;;;10.80;99.90;;;9.43;100.00;101503.13;2565400;30;139673;-38
2021/10/26 03:31:35;;;;;;;11.32;6.93;;;10.90;99.90;;;9.40;100.00;101498.06;2566910;30;136794;-39
2021/10/26 03:34:14;;;;;;;14.15;6.43;;;10.90;99.90;;;9.39;100.00;101501.81;2567081;30;137100;-39
2021/10/26 03:36:42;;;;;;;10.30;5.97;;;10.90;99.90;;;9.35;100.00;101498.63;2567723;30;137578;-38
2021/10/26 03:39:10;;;;;;;10.85;6.35;;;10.80;99.90;;;9.32;100.00;101501.72;2569068;30;140785;-39
2021/10/26 03:41:38;;;;;;;9.32;5.90;;;10.80;99.90;;;9.30;100.00;101503.78;2568988;30;138209;-39
2021/10/26 03:44:06;;;;;;;10.52;6.05;;;10.80;99.90;;;9.27;100.00;101505.00;2567512;30;138434;-38
2021/10/26 03:46:35;;;;;;;10.32;6.10;;;10.80;99.90;;;9.25;100.00;101501.63;2569514;30;139501;-39
2021/10/26 03:49:04;;;;;;;10.73;6.50;;;10.80;99.90;;;9.26;100.00;101511.47;2568574;30;138406;-39
2021/10/26 03:51:33;;;;;;;10.13;6.28;;;10.80;99.90;;;9.26;100.00;101519.66;2568205;30;137018;-39
2021/10/26 03:54:01;;;;;;;13.95;6.93;;;10.80;99.90;;;9.31;100.00;101519.94;2567703;30;139626;-39
2021/10/26 03:56:31;;;;;;;10.10;5.65;;;10.80;99.90;;;9.30;100.00;101521.00;2568441;30;139090;-38
2021/10/26 03:59:08;;;;;;;12.18;6.05;;;10.80;99.90;;;9.26;100.00;101508.75;2567858;30;138118;-39
2021/10/26 04:01:37;;;;;;;9.80;5.55;;;10.80;99.90;;;9.30;100.00;101521.00;2567679;30;139300;-39
2021/10/26 04:04:05;;;;;;;8.65;5.30;;;10.80;99.90;;;9.29;100.00;101522.03;2569109;30;139153;-38
2021/10/26 04:06:34;;;;;;;14.77;6.95;;;10.80;99.90;;;9.34;100.00;101522.31;2566655;30;138097;-39
2021/10/26 04:09:06;;;;;;;10.18;6.72;;;10.80;99.90;;;9.34;100.00;101522.31;2567530;30;140074;-38
2021/10/26 04:11:51;;;;;;;11.13;6.72;;;10.80;99.90;;;9.45;100.00;101520.13;2566188;30;138704;-39
2021/10/26 04:14:19;;;;;;;11.30;6.40;;;10.90;99.90;;;9.44;100.00;101526.59;2568757;30;138995;-37
2021/10/26 04:16:50;;;;;;;12.45;6.57;;;10.90;99.90;;;9.43;100.00;101539.41;2568854;30;137105;-38
2021/10/26 04:19:18;;;;;;;13.38;7.30;;;10.90;99.90;;;9.50;100.00;101544.91;2568306;30;138396;-38
2021/10/26 04:21:45;;;;;;;11.30;7.10;;;10.90;99.90;;;9.46;100.00;101541.75;2568353;30;137588;-39
2021/10/26 04:24:14;;;;;;;13.05;7.00;;;10.90;99.90;;;9.54;100.00;101546.22;2569056;30;139139;-39
2021/10/26 04:26:41;;;;;;;12.45;7.07;;;11.00;99.90;;;9.52;100.00;101545.56;2571073;30;139563;-39
2021/10/26 04:29:09;;;;;;;11.82;6.35;;;11.00;99.90;;;9.53;100.00;101555.44;2569056;30;139845;-39
2021/10/26 04:31:36;;;;;;;11.93;7.18;;;11.00;99.90;;;9.55;100.00;101550.69;2565820;30;138639;-39
2021/10/26 04:34:04;;;;;;;12.73;6.60;;;11.00;99.90;;;9.57;100.00;101558.63;2566211;30;139693;-39
2021/10/26 04:36:32;;;;;;;11.73;6.75;;;11.00;99.90;;;9.56;100.00;101552.38;2570788;30;138325;-39
2021/10/26 04:39:00;;;;;;;11.70;6.90;;;11.00;99.90;;;9.58;100.00;101555.75;2566966;30;138388;-39
2021/10/26 04:41:28;;;;;;;12.38;7.07;;;11.00;99.90;;;9.57;100.00;101548.59;2569377;30;137682;-39
2021/10/26 04:43:57;;;;;;;14.15;7.20;;;11.10;99.90;;;9.57;100.00;101554.06;2568225;30;139779;-38
2021/10/26 04:46:24;;;;;;;12.40;6.43;;;11.00;99.90;;;9.60;100.00;101556.41;2571225;30;137480;-39
2021/10/26 04:48:52;;;;;;;11.65;6.80;;;11.10;99.90;;;9.59;100.00;101562.03;2569511;30;137816;-39
2021/10/26 04:51:19;;;;;;;12.07;6.70;;;11.10;99.90;;;9.56;100.00;101557.81;2568753;30;139182;-39
2021/10/26 04:53:47;;;;;;;13.82;6.80;;;11.00;99.90;;;9.57;100.00;101556.78;2567734;30;140187;-39
2021/10/26 04:56:15;;;;;;;11.07;6.93;;;11.00;99.90;;;9.58;100.00;101560.34;2568041;30;137522;-39
2021/10/26 04:59:05;;;;;;;11.52;6.28;;;11.00;99.90;;;9.55;100.00;101552.53;2567717;30;137152;-39
2021/10/26 05:01:33;;;;;;;13.20;6.53;;;11.00;99.90;;;9.59;100.00;101553.84;2570034;30;138809;-39
2021/10/26 05:04:01;;;;;;;;;;;11.00;99.90;;;9.56;100.00;101557.81;2567577;30;139887;-39
2021/10/26 05:06:29;;;;;;;11.32;6.40;;;11.00;99.90;;;9.53;100.00;101551.88;2568883;30;136709;-39
2021/10/26 05:08:57;;;;;;;13.00;6.90;;;11.00;99.90;;;9.52;100.00;101556.47;2569465;30;137433;-39
2021/10/26 05:11:24;;;;;;;11.15;6.70;;;11.00;99.90;;;9.51;100.00;101560.22;2570047;30;138193;-39
2021/10/26 05:13:53;;;;;;;12.23;6.72;;;11.00;99.90;;;9.54;100.00;101556.28;2567490;30;141226;-39
2021/10/26 05:16:43;;;;;;;16.55;7.10;;;11.00;99.90;;;9.53;100.00;101558.16;2567629;30;138353;-40
2021/10/26 05:19:30;;;;;;;14.00;7.10;;;11.00;99.90;;;9.58;100.00;101565.78;2569092;30;136894;-39
2021/10/26 05:22:18;;;;;;;12.77;7.00;;;11.00;99.90;;;9.60;100.00;101566.44;2570359;30;136673;-39
2021/10/26 05:25:06;;;;;;;11.48;6.47;;;11.00;99.90;;;9.57;100.00;101570.41;2569613;30;137261;-39
2021/10/26 05:27:51;;;;;;;12.05;7.47;;;11.00;99.90;;;9.62;100.00;101580.72;2569628;30;137279;-39
2021/10/26 05:30:19;;;;;;;15.20;7.72;;;11.10;99.90;;;9.65;100.00;101572.16;2568153;30;140564;-39
2021/10/26 05:32:46;;;;;;;;;;;11.10;99.90;;;9.69;100.00;101578.09;2569172;30;138339;-37
2021/10/26 05:35:14;;;;;;;13.13;7.40;;;11.10;99.90;;;9.70;100.00;101579.78;2565550;30;140626;-38
2021/10/26 05:37:42;;;;;;;14.30;6.78;;;11.10;99.90;;;9.70;100.00;101586.09;2570622;30;136765;-39
2021/10/26 05:40:10;;;;;;;13.63;7.32;;;11.10;99.90;;;9.69;100.00;101580.81;2567456;30;138519;-39
2021/10/26 05:42:38;;;;;;;13.95;7.57;;;11.10;99.90;;;9.69;100.00;101573.50;2569296;30;139048;-39
2021/10/26 05:45:06;;;;;;;13.30;7.18;;;11.10;99.90;;;9.76;100.00;101579.88;2568363;30;137337;-39
2021/10/26 05:47:34;;;;;;;12.73;6.78;;;11.20;99.90;;;9.71;100.00;101573.28;2569068;30;137525;-38
2021/10/26 05:50:02;;;;;;;;;;;11.20;99.90;;;9.69;100.00;101576.22;2567586;30;139476;-38
2021/10/26 05:52:32;;;;;;;12.45;6.82;;;11.10;99.90;;;9.70;100.00;101574.34;2568469;30;137485;-39
2021/10/26 05:54:59;;;;;;;10.52;6.95;;;11.10;99.90;;;9.69;100.00;101578.09;2569636;30;139629;-39
2021/10/26 05:57:27;;;;;;;14.60;6.88;;;11.10;99.90;;;9.69;100.00;101578.94;2568708;30;140348;-38
2021/10/26 05:59:55;;;;;;;13.02;7.32;;;11.10;99.90;;;9.74;100.00;101586.53;2567904;30;140387;-38
2021/10/26 06:02:23;;;;;;;14.75;7.50;;;11.20;99.90;;;9.71;100.00;101581.47;2568508;30;136778;-39
2021/10/26 06:04:52;;;;;;;13.15;7.25;;;11.20;99.90;;;9.70;100.00;101591.53;2569981;30;140204;-38
2021/10/26 06:07:19;;;;;;;16.17;7.70;;;11.20;99.90;;;9.73;100.00;101591.16;2568329;30;138227;-38
2021/10/26 06:09:47;;;;;;;13.80;7.50;;;11.20;99.90;;;9.78;100.00;101596.88;2570086;30;140625;-39
2021/10/26 06:12:21;;;;;;;15.38;7.63;;;11.20;99.90;;;9.79;100.00;101603.16;2567997;30;137472;-39
2021/10/26 06:14:49;;;;;;;12.60;6.75;;;11.20;99.90;;;9.77;100.00;101605.25;2567394;30;138548;-38
2021/10/26 06:17:16;;;;;;;11.63;6.82;;;11.20;99.90;;;9.76;100.00;101603.53;2567642;30;137033;-38
2021/10/26 06:19:48;;;;;;;13.52;7.40;;;11.20;99.90;;;9.74;100.00;101598.31;2568839;30;139541;-39
2021/10/26 06:22:16;;;;;;;10.85;6.47;;;11.20;99.90;;;9.68;100.00;101614.53;2568937;30;137812;-38
2021/10/26 06:24:46;;;;;;;15.27;7.78;;;11.20;99.90;;;9.71;100.00;101622.34;2569457;30;138148;-39
2021/10/26 06:27:14;;;;;;;11.57;6.75;;;11.20;99.90;;;9.68;100.00;101622.72;2568539;30;138258;-38
2021/10/26 06:29:45;;;;;;;11.48;6.72;;;11.10;99.90;;;9.66;100.00;101628.34;2568991;30;139851;-39
2021/10/26 06:32:28;;;;;;;10.65;6.18;;;11.10;99.90;;;9.67;100.00;101630.03;2568845;30;137468;-38
2021/10/26 06:35:19;;;;;;;14.23;7.63;;;11.10;99.90;;;9.76;100.00;101639.84;2568461;30;139674;-38
2021/10/26 06:37:47;;;;;;;12.35;6.75;;;11.20;99.90;;;9.75;100.00;101631.84;2567053;30;138096;-39
2021/10/26 06:40:18;;;;;;;15.32;7.05;;;11.20;99.90;;;9.86;100.00;101645.00;2567261;30;139364;-38
2021/10/26 06:43:05;;;;;;;12.50;7.00;;;11.30;99.90;;;9.84;100.00;101647.06;2569066;30;137526;-38
2021/10/26 06:45:51;;;;;;;14.13;7.00;;;11.30;99.90;;;9.88;100.00;101655.72;2568557;30;137553;-39
2021/10/26 06:48:48;;;;;;;12.90;7.47;;;11.30;99.90;;;9.91;100.00;101658.91;2569181;30;136836;-38
2021/10/26 06:51:34;;;;;;;13.63;7.13;;;11.30;99.90;;;9.92;100.00;101660.59;2567032;30;137833;-39
2021/10/26 06:54:20;;;;;;;15.18;7.72;;;11.30;99.90;;;10.00;100.00;101667.00;2569572;30;137090;-38
2021/10/26 06:57:06;;;;;;;14.52;6.95;;;11.40;99.90;;;9.98;100.00;101667.19;2568505;30;136986;-39
2021/10/26 06:59:53;;;;;;;13.75;6.70;;;11.40;99.90;;;9.98;100.00;101679.97;2569531;30;137114;-38
2021/10/26 07:02:53;;;;;;;13.25;6.53;;;11.40;99.90;;;10.01;100.00;101679.59;2570572;30;137455;-38
2021/10/26 07:05:40;;;;;;;13.20;7.07;;;11.40;99.90;;;10.02;100.00;101678.56;2569969;30;137149;-38
2021/10/26 07:08:26;;;;;;;13.68;7.82;;;11.40;99.90;;;10.03;100.00;101680.25;2568788;30;136949;-38
2021/10/26 07:11:16;;;;;;;15.77;6.82;;;11.50;99.90;;;10.08;100.00;101680.56;2567121;30;136724;-39
2021/10/26 07:13:44;;;;;;;12.35;7.10;;;11.50;99.90;;;10.09;100.00;101684.97;2568780;30;136896;-38
2021/10/26 07:16:11;;;;;;;15.55;7.25;;;11.50;99.90;;;10.16;100.00;101682.31;2569785;30;139215;-39
2021/10/26 07:18:39;;;;;;;11.63;6.57;;;11.50;99.90;;;10.16;100.00;101690.50;2569056;30;140991;-39
2021/10/26 07:21:07;;;;;;;16.17;6.63;;;11.60;99.90;;;10.13;100.00;101683.53;2569792;30;139696;-38
2021/10/26 07:23:41;;;;;;;12.70;6.93;;;11.60;99.90;;;10.19;100.00;101692.84;2567728;30;137700;-39
2021/10/26 07:26:35;;;;;;;12.35;7.15;;;11.60;99.90;;;10.23;100.00;101688.72;2569260;30;137177;-38
2021/10/26 07:29:05;;;;;;;14.43;7.35;;;11.60;99.90;;;10.26;100.00;101687.47;2566514;30;140335;-38
2021/10/26 07:31:32;;;;;;;;;;;11.60;99.90;;;10.29;100.00;101687.09;2570393;30;137049;-39
2021/10/26 07:34:01;;;;;;;12.20;6.78;;;11.70;99.90;;;10.29;100.00;101685.22;2568680;30;138316;-38
2021/10/26 07:36:47;;;;;;;13.75;7.00;;;11.70;99.90;;;10.29;100.00;101685.22;2568805;30;139919;-39
2021/10/26 07:39:32;;;;;;;11.85;6.20;;;11.70;99.90;;;10.35;100.00;101698.09;2568631;30;139518;-39
2021/10/26 07:42:01;;;;;;;11.38;6.30;;;11.70;99.90;;;10.36;100.00;101697.06;2568093;30;138576;-38
2021/10/26 07:44:58;;;;;;;14.93;7.50;;;11.70;99.90;;;10.41;100.00;101701.13;2567062;30;137535;-39
2021/10/26 07:47:30;;;;;;;14.85;7.30;;;11.80;99.90;;;10.47;100.00;101711.28;2569408;30;137537;-39
2021/10/26 07:49:59;;;;;;;10.55;6.15;;;11.80;99.90;;;10.47;100.00;101714.88;2569111;30;137526;-38
2021/10/26 07:52:32;;;;;;;14.13;6.60;;;11.80;99.90;;;10.53;100.00;101709.69;2567956;30;136970;-39
2021/10/26 07:55:29;;;;;;;12.35;6.53;;;11.90;99.90;;;10.55;100.00;101713.06;2568343;30;137475;-38
2021/10/26 07:58:03;;;;;;;11.82;6.55;;;11.90;99.90;;;10.57;100.00;101700.06;2567877;30;136941;-39
2021/10/26 08:00:31;;;;;;;12.52;5.55;;;11.90;99.90;;;10.59;100.00;101717.94;2565756;30;139522;-39
2021/10/26 08:03:34;;;;;;;11.00;6.03;;;11.90;99.90;;;10.64;100.00;101714.66;2568098;30;137711;-39
2021/10/26 08:06:02;;;;;;;;;;;12.00;99.90;;;10.65;100.00;101714.44;2565160;30;138444;-39
2021/10/26 08:08:34;;;;;;;12.60;6.03;;;12.00;99.90;;;10.68;100.00;101724.16;2569208;30;138188;-39
2021/10/26 08:11:02;;;;;;;13.25;6.32;;;12.00;99.90;;;10.69;100.00;101720.38;2569111;30;137392;-39
2021/10/26 08:13:32;;;;;;;9.32;5.22;;;12.00;99.90;;;10.73;100.00;101716.22;2567927;30;139697;-39
2021/10/26 08:15:59;;;;;;;13.68;6.10;;;12.10;99.90;;;10.69;100.00;101719.53;2569254;30;140164;-39
2021/10/26 08:18:28;;;;;;;10.70;5.50;;;12.10;99.90;;;10.78;100.00;101730.16;2567994;30;139448;-39
2021/10/26 08:20:57;;;;;;;9.98;5.50;;;12.10;99.90;;;10.83;100.00;101726.84;2564990;30;138415;-38
2021/10/26 08:23:25;;;;;;;11.52;5.85;;;12.20;99.90;;;10.88;100.00;101734.47;2566662;30;140298;-39
2021/10/26 08:25:59;;;;;;;13.10;5.80;;;12.20;99.90;;;10.96;99.79;101737.06;2568744;30;140937;-39
2021/10/26 08:28:28;;;;;;;12.23;4.97;;;12.30;99.90;;;10.96;98.96;101738.94;2569505;30;140322;-39
2021/10/26 08:31:07;;;;;;;12.73;5.38;;;12.30;99.90;;;10.98;99.45;101739.59;2568484;30;138345;-38
2021/10/26 08:34:10;;;;;;;13.73;5.00;;;12.30;99.90;;;11.03;100.00;101726.22;2567366;30;138822;-39
2021/10/26 08:36:38;;;;;;;13.38;4.63;;;12.30;99.90;;;11.00;99.86;101729.31;2570991;30;138282;-38
2021/10/26 08:39:09;;;;;;;15.90;5.93;;;12.30;99.90;;;11.04;100.00;101719.72;2567887;30;137510;-39
2021/10/26 08:41:46;;;;;;;9.73;4.47;;;12.40;99.90;;;11.14;100.00;101727.59;2581830;30;138715;-40
2021/10/26 08:44:17;;;;;;;10.10;5.07;;;12.40;99.90;;;11.18;100.00;101729.75;2568085;30;138428;-40
2021/10/26 08:46:47;;;;;;;13.05;5.13;;;12.50;99.90;;;11.31;100.00;101729.03;2567860;30;139108;-40
2021/10/26 08:49:20;;;;;;;9.20;4.72;;;12.60;99.90;;;11.36;99.69;101725.72;2567652;30;138669;-40
2021/10/26 08:51:52;;;;;;;11.88;4.28;;;12.60;99.90;;;11.41;98.79;101728.69;2568126;30;136917;-40
2021/10/26 08:54:23;;;;;;;13.38;4.90;;;12.70;99.90;;;11.42;97.38;101729.56;2567273;30;138846;-40
2021/10/26 08:57:06;;;;;;;9.90;4.30;;;12.70;99.90;;;11.47;97.54;101733.38;2568075;30;137028;-40
2021/10/26 08:59:52;;;;;;;9.40;3.92;;;12.70;99.90;;;11.53;96.84;101731.75;2568311;30;136822;-40
2021/10/26 09:02:41;;;;;;;11.60;4.25;;;12.80;99.90;;;11.57;96.40;101733.03;2566196;30;138835;-40
2021/10/26 09:05:23;;;;;;;8.30;3.90;;;12.90;99.90;;;11.58;96.65;101733.91;2567984;30;137038;-40
2021/10/26 09:08:09;;;;;;;8.13;4.13;;;12.90;99.90;;;11.62;96.29;101733.28;2568130;30;139219;-40
2021/10/26 09:10:40;;;;;;;10.27;3.72;;;12.90;99.90;;;11.66;95.91;101729.13;2567352;30;136967;-40
2021/10/26 09:16:59;;;;;;;11.90;3.80;;;13.00;99.90;;;11.82;93.84;101724.41;2568165;30;137072;-40
2021/10/26 09:19:45;;;;;;;8.40;3.75;;;13.10;99.90;;;11.87;94.20;101727.38;2568633;30;137345;-40
2021/10/26 09:22:54;;;;;;;8.13;3.33;;;13.20;99.90;;;11.93;93.94;101737.56;2566280;30;139812;-40
2021/10/26 09:25:58;;;;;;;11.83;3.80;;;13.20;99.90;;;11.99;92.45;101729.59;2566727;30;139709;-40
2021/10/26 09:28:27;;;;;;;8.52;3.20;;;13.20;99.90;;;12.03;92.24;101736.38;2567637;30;138370;-40
2021/10/26 09:31:06;;;;;;;8.57;2.97;;;13.30;99.90;;;12.10;93.02;101723.59;2567483;30;140754;-40
2021/10/26 09:33:40;;;;;;;9.07;3.50;;;13.30;99.90;;;12.13;91.74;101723.19;2567001;30;139082;-40
2021/10/26 09:36:28;;;;;;;6.53;2.92;;;13.40;99.90;;;12.23;91.83;101731.88;2567234;30;138488;-40
2021/10/26 09:39:07;;;;;;;6.13;2.75;;;13.50;99.90;;;12.29;89.82;101729.38;2568056;30;137356;-40
2021/10/26 09:41:36;;;;;;;;;;;13.50;99.90;;;12.30;91.01;101731.91;2568357;30;138398;-40
2021/10/26 09:44:19;;;;;;;7.18;3.35;;;13.60;99.90;;;12.35;89.57;101734.03;2568767;30;137197;-40
2021/10/26 09:47:13;;;;;;;7.20;3.20;;;13.60;99.90;;;12.35;89.47;101728.56;2567910;30;138298;-40
2021/10/26 09:49:44;;;;;;;7.53;2.85;;;13.70;99.90;;;12.41;90.52;101733.22;2568171;30;137756;-40
2021/10/26 09:52:23;;;;;;;6.53;2.90;;;13.70;99.90;;;12.48;88.93;101727.78;2565294;30;138224;-40
2021/10/26 09:57:54;;;;;;;7.78;2.72;;;13.80;99.90;;;12.61;87.90;101725.13;2566269;30;137780;-40
2021/10/26 10:00:28;;;;;;;7.03;2.63;;;13.90;99.90;;;12.71;88.65;101730.19;2567782;30;138563;-40
2021/10/26 10:03:02;;;;;;;7.03;2.45;;;13.90;99.90;;;12.82;87.31;101731.50;2567574;30;139067;-40
2021/10/26 10:05:58;;;;;;;6.53;2.50;;;14.00;99.90;;;12.95;85.31;101722.47;2567858;30;138362;-40
2021/10/26 10:08:37;;;;;;;7.00;2.70;;;14.10;99.90;;;13.05;87.46;101724.81;2568058;30;139132;-40
2021/10/26 10:11:13;;;;;;;9.15;2.35;;;14.20;99.90;;;13.14;86.81;101728.22;2566885;30;137776;-40
2021/10/26 10:13:54;;;;;;;7.40;2.30;;;14.30;99.90;;;13.24;87.78;101740.47;2567709;30;140497;-40
2021/10/26 10:16:25;;;;;;;6.65;2.60;;;14.40;99.90;;;13.20;85.73;101735.59;2567363;30;137122;-40
2021/10/26 10:18:54;;;;;;;8.15;2.38;;;14.40;99.90;;;13.19;85.89;101747.63;2567842;30;137605;-40
2021/10/26 10:21:26;;;;;;;6.18;2.60;;;14.40;99.90;;;13.24;85.23;101739.59;2567952;30;137700;-40
2021/10/26 10:24:00;;;;;;;8.63;2.67;;;14.50;99.90;;;13.37;83.36;101739.66;2567623;30;137607;-40
2021/10/26 10:26:35;;;;;;;7.30;2.47;;;14.50;99.90;;;13.47;83.83;101735.66;2568289;30;138326;-40
2021/10/26 10:29:03;;;;;;;8.18;2.53;;;14.60;99.90;;;13.51;84.17;101747.91;2567931;30;137384;-41
2021/10/26 10:31:32;;;;;;;11.05;2.67;;;14.70;99.90;;;13.48;81.53;101742.84;2568142;30;137031;-41
2021/10/26 10:34:03;;;;;;;5.57;2.20;;;14.70;99.90;;;13.43;82.85;101740.75;2567128;30;138581;-40
2021/10/26 10:36:31;;;;;;;7.88;2.60;;;14.70;99.90;;;13.45;83.11;101737.78;2567291;30;137405;-40